createdAt,value
2022-12-18T00:01:25.280Z,22.40
2022-12-18T00:03:53.986Z,22.47
2022-12-18T00:06:22.817Z,23.07
2022-12-18T00:08:49.996Z,22.83
2022-12-18T00:11:19.890Z,21.73
2022-12-18T00:13:47.547Z,23.63
2022-12-18T00:16:21.388Z,21.87
2022-12-18T00:18:49.460Z,21.87
2022-12-18T00:21:17.198Z,19.60
2022-12-18T00:23:45.924Z,22.77
2022-12-18T00:26:15.875Z,22.43
2022-12-18T00:28:43.539Z,22.03
2022-12-18T00:31:13.837Z,21.30
2022-12-18T00:33:43.284Z,21.60
2022-12-18T00:36:13.672Z,22.17
2022-12-18T00:38:41.794Z,21.07
2022-12-18T00:41:12.851Z,20.83
2022-12-18T00:43:41.191Z,21.07
2022-12-18T00:46:08.497Z,20.97
2022-12-18T00:48:36.667Z,22.37
2022-12-18T00:51:05.274Z,20.47
2022-12-18T00:53:32.226Z,20.20
2022-12-18T00:55:59.143Z,21.63
2022-12-18T00:58:26.183Z,22.00
2022-12-18T01:00:53.433Z,20.17
2022-12-18T01:03:20.445Z,20.73
2022-12-18T01:05:47.371Z,20.93
2022-12-18T01:08:16.756Z,19.30
2022-12-18T01:10:43.754Z,19.83
2022-12-18T01:13:10.694Z,20.53
2022-12-18T01:15:37.947Z,19.57
2022-12-18T01:18:05.052Z,19.20
2022-12-18T01:20:31.992Z,17.23
2022-12-18T01:22:58.986Z,20.03
2022-12-18T01:25:27.309Z,20.17
2022-12-18T01:27:54.236Z,20.03
2022-12-18T01:30:21.256Z,19.33
2022-12-18T01:32:48.558Z,18.70
2022-12-18T01:35:15.751Z,17.73
2022-12-18T01:37:42.723Z,16.97
2022-12-18T01:40:10.975Z,18.17
2022-12-18T01:42:39.245Z,17.43
2022-12-18T01:45:28.125Z,18.27
2022-12-18T01:47:58.295Z,17.93
2022-12-18T01:50:32.531Z,18.23
2022-12-18T01:53:06.482Z,18.23
2022-12-18T01:55:41.260Z,17.93
2022-12-18T01:58:11.063Z,18.00
2022-12-18T02:00:38.105Z,17.37
2022-12-18T02:03:05.204Z,17.90
2022-12-18T02:05:45.812Z,16.77
2022-12-18T02:08:22.256Z,17.47
2022-12-18T02:10:58.077Z,16.63
2022-12-18T02:13:41.465Z,17.77
2022-12-18T02:16:24.729Z,19.17
2022-12-18T02:18:59.189Z,17.27
2022-12-18T02:21:39.214Z,16.67
2022-12-18T02:24:26.177Z,18.33
2022-12-18T02:26:59.082Z,17.27
2022-12-18T02:29:33.632Z,17.97
2022-12-18T02:32:03.206Z,16.27
2022-12-18T02:34:37.617Z,14.97
2022-12-18T02:37:10.533Z,17.43
2022-12-18T02:39:42.821Z,17.03
2022-12-18T02:42:12.809Z,15.93
2022-12-18T02:44:45.373Z,17.27
2022-12-18T02:47:15.490Z,15.53
2022-12-18T02:49:58.718Z,16.60
2022-12-18T02:52:35.913Z,17.10
2022-12-18T02:55:19.839Z,14.43
2022-12-18T02:57:56.224Z,15.30
2022-12-18T03:00:32.141Z,14.93
2022-12-18T03:03:05.477Z,15.67
2022-12-18T03:05:40.654Z,15.37
2022-12-18T03:08:13.268Z,14.23
2022-12-18T03:10:50.456Z,13.23
2022-12-18T03:13:28.988Z,13.00
2022-12-18T03:15:59.928Z,14.47
2022-12-18T03:18:36.216Z,12.87
2022-12-18T03:21:08.856Z,13.33
2022-12-18T03:23:43.962Z,14.43
2022-12-18T03:26:18.726Z,14.07
2022-12-18T03:28:52.223Z,13.63
2022-12-18T03:31:23.300Z,13.30
2022-12-18T03:33:55.288Z,12.47
2022-12-18T03:36:24.117Z,12.27
2022-12-18T03:38:51.960Z,13.03
2022-12-18T03:41:30.257Z,12.27
2022-12-18T03:44:12.382Z,12.30
2022-12-18T03:46:50.407Z,12.43
2022-12-18T03:49:28.928Z,12.00
2022-12-18T03:52:03.879Z,13.23
2022-12-18T03:54:33.822Z,11.83
2022-12-18T03:57:10.740Z,11.90
2022-12-18T03:59:40.863Z,12.00
2022-12-18T04:02:10.056Z,12.13
2022-12-18T04:04:41.057Z,10.47
2022-12-18T04:07:09.530Z,10.70
2022-12-18T04:09:39.573Z,10.57
2022-12-18T04:12:07.353Z,11.10
2022-12-18T04:14:36.517Z,11.20
2022-12-18T04:17:04.898Z,11.13
2022-12-18T04:19:31.901Z,11.17
2022-12-18T04:21:58.912Z,11.30
2022-12-18T04:24:25.919Z,11.13
2022-12-18T04:26:52.905Z,11.07
2022-12-18T04:29:19.842Z,11.43
2022-12-18T04:31:46.819Z,10.90
2022-12-18T04:34:15.275Z,11.57
2022-12-18T04:36:42.258Z,10.43
2022-12-18T04:39:09.309Z,10.87
2022-12-18T04:41:36.278Z,11.43
2022-12-18T04:44:03.638Z,10.20
2022-12-18T04:46:30.656Z,9.47
2022-12-18T04:48:57.659Z,10.97
2022-12-18T04:51:26.846Z,10.83
2022-12-18T04:53:54.366Z,10.77
2022-12-18T04:56:21.445Z,11.13
2022-12-18T04:58:48.520Z,10.23
2022-12-18T05:01:17.908Z,10.57
2022-12-18T05:03:45.744Z,10.23
2022-12-18T05:06:12.963Z,9.90
2022-12-18T05:08:41.358Z,10.13
2022-12-18T05:11:12.421Z,10.20
2022-12-18T05:13:39.921Z,10.43
2022-12-18T05:16:08.527Z,9.80
2022-12-18T05:18:36.161Z,9.83
2022-12-18T05:21:04.194Z,9.57
2022-12-18T05:23:31.166Z,8.87
2022-12-18T05:26:02.286Z,9.37
2022-12-18T05:28:32.918Z,8.87
2022-12-18T05:31:03.418Z,9.10
2022-12-18T05:33:34.388Z,10.00
2022-12-18T05:36:04.501Z,9.80
2022-12-18T05:38:33.616Z,9.43
2022-12-18T05:41:02.377Z,10.23
2022-12-18T05:43:30.444Z,9.20
2022-12-18T05:45:58.383Z,9.40
2022-12-18T05:48:25.875Z,8.23
2022-12-18T05:50:52.892Z,9.53
2022-12-18T05:53:21.501Z,9.57
2022-12-18T05:55:48.785Z,9.20
2022-12-18T05:58:17.236Z,9.33
2022-12-18T06:00:46.534Z,9.53
2022-12-18T06:03:15.056Z,9.13
2022-12-18T06:05:45.262Z,9.70
2022-12-18T06:08:13.979Z,9.47
2022-12-18T06:10:41.816Z,9.23
2022-12-18T06:13:09.257Z,9.67
2022-12-18T06:15:39.105Z,8.90
2022-12-18T06:18:06.210Z,10.03
2022-12-18T06:20:34.085Z,9.47
2022-12-18T06:23:01.268Z,8.23
2022-12-18T06:25:28.251Z,8.70
2022-12-18T06:27:55.237Z,8.57
2022-12-18T06:30:23.436Z,9.60
2022-12-18T06:32:56.595Z,8.90
2022-12-18T06:35:24.010Z,8.73
2022-12-18T06:37:51.704Z,9.43
2022-12-18T06:40:19.397Z,9.93
2022-12-18T06:42:46.424Z,9.33
2022-12-18T06:45:13.457Z,9.00
2022-12-18T06:47:40.437Z,8.43
2022-12-18T06:50:09.154Z,9.47
2022-12-18T06:52:36.166Z,9.27
2022-12-18T06:55:03.847Z,9.13
2022-12-18T06:57:30.794Z,8.77
2022-12-18T06:59:57.728Z,8.83
2022-12-18T07:02:24.807Z,8.57
2022-12-18T07:04:51.814Z,8.37
2022-12-18T07:07:20.139Z,10.20
2022-12-18T07:09:47.106Z,8.50
2022-12-18T07:12:14.037Z,9.27
2022-12-18T07:14:41.002Z,9.47
2022-12-18T07:17:08.310Z,8.93
2022-12-18T07:19:35.549Z,8.63
2022-12-18T07:22:02.788Z,9.00
2022-12-18T07:24:31.234Z,8.90
2022-12-18T07:26:58.184Z,9.13
2022-12-18T07:29:25.456Z,8.77
2022-12-18T07:31:52.494Z,8.93
2022-12-18T07:34:19.553Z,8.37
2022-12-18T07:36:46.464Z,9.23
2022-12-18T07:39:13.585Z,8.63
2022-12-18T07:41:47.256Z,9.23
2022-12-18T07:44:14.733Z,9.47
2022-12-18T07:46:41.678Z,8.93
2022-12-18T07:49:08.713Z,9.67
2022-12-18T07:51:35.646Z,8.67
2022-12-18T07:54:02.668Z,9.90
2022-12-18T07:56:31.210Z,9.17
2022-12-18T07:59:00.566Z,8.13
2022-12-18T08:01:28.225Z,9.30
2022-12-18T08:03:55.419Z,8.93
2022-12-18T08:06:24.252Z,9.23
2022-12-18T08:08:53.617Z,8.80
2022-12-18T08:11:20.893Z,8.40
2022-12-18T08:13:48.585Z,8.40
2022-12-18T08:16:18.846Z,8.73
2022-12-18T08:18:46.875Z,9.47
2022-12-18T08:21:19.028Z,8.80
2022-12-18T08:23:48.449Z,8.53
2022-12-18T08:26:16.722Z,9.10
2022-12-18T08:28:44.207Z,9.43
2022-12-18T08:31:11.947Z,8.63
2022-12-18T08:33:42.442Z,8.70
2022-12-18T08:36:11.849Z,8.97
2022-12-18T08:38:39.120Z,8.53
2022-12-18T08:41:08.758Z,9.17
2022-12-18T08:43:54.411Z,8.13
2022-12-18T08:46:24.751Z,8.23
2022-12-18T08:48:55.346Z,10.50
2022-12-18T08:51:22.423Z,8.93
2022-12-18T08:53:49.454Z,9.80
2022-12-18T08:56:17.591Z,10.17
2022-12-18T08:58:44.611Z,9.43
2022-12-18T09:01:13.880Z,8.90
2022-12-18T09:03:41.679Z,10.03
2022-12-18T09:06:14.020Z,9.87
2022-12-18T09:08:41.587Z,9.83
2022-12-18T09:11:20.002Z,9.07
2022-12-18T09:13:47.026Z,9.27
2022-12-18T09:16:14.030Z,9.37
2022-12-18T09:18:41.369Z,9.03
2022-12-18T09:21:12.658Z,8.63
2022-12-18T09:23:39.703Z,9.30
2022-12-18T09:26:06.929Z,9.20
2022-12-18T09:28:34.344Z,10.00
2022-12-18T09:31:08.476Z,9.07
2022-12-18T09:33:36.886Z,9.10
2022-12-18T09:36:06.731Z,8.80
2022-12-18T09:38:35.935Z,9.50
2022-12-18T09:41:16.206Z,9.50
2022-12-18T09:43:49.414Z,9.20
2022-12-18T09:46:30.321Z,9.87
2022-12-18T09:49:04.790Z,9.33
2022-12-18T09:51:41.943Z,9.43
2022-12-18T09:54:18.928Z,9.03
2022-12-18T09:56:45.993Z,8.70
2022-12-18T09:59:24.822Z,8.80
2022-12-18T10:01:52.294Z,8.47
2022-12-18T10:04:19.725Z,8.60
2022-12-18T10:06:55.811Z,9.57
2022-12-18T10:09:37.490Z,9.13
2022-12-18T10:12:17.062Z,9.13
2022-12-18T10:14:54.427Z,9.23
2022-12-18T10:17:36.488Z,9.77
2022-12-18T10:20:14.454Z,8.87
2022-12-18T10:22:54.056Z,8.97
2022-12-18T10:25:28.615Z,9.97
2022-12-18T10:28:08.363Z,8.97
2022-12-18T10:30:35.522Z,9.07
2022-12-18T10:33:03.553Z,8.83
2022-12-18T10:35:30.530Z,8.93
2022-12-18T10:38:07.651Z,8.20
2022-12-18T10:40:51.240Z,9.83
2022-12-18T10:43:24.709Z,9.43
2022-12-18T10:46:20.247Z,9.47
2022-12-18T10:48:57.036Z,9.47
2022-12-18T10:51:31.357Z,8.93
2022-12-18T10:54:03.276Z,9.00
2022-12-18T10:56:36.643Z,9.30
2022-12-18T10:59:06.722Z,9.43
2022-12-18T11:01:50.662Z,9.50
2022-12-18T11:04:21.637Z,9.63
2022-12-18T11:06:59.313Z,9.90
2022-12-18T11:09:28.573Z,10.13
2022-12-18T11:12:00.116Z,9.40
2022-12-18T11:14:31.884Z,9.63
2022-12-18T11:19:57.444Z,9.20
2022-12-18T11:22:28.712Z,9.60
2022-12-18T11:27:56.280Z,8.33
2022-12-18T11:30:27.735Z,8.90
2022-12-18T11:33:02.764Z,8.83
2022-12-18T11:35:43.052Z,8.40
2022-12-18T11:38:24.190Z,8.67
2022-12-18T11:40:59.958Z,8.93
2022-12-18T11:43:35.719Z,8.13
2022-12-18T11:46:13.480Z,7.70
2022-12-18T11:48:51.616Z,8.47
2022-12-18T11:51:30.527Z,8.00
2022-12-18T11:53:57.594Z,8.67
2022-12-18T11:56:33.517Z,8.03
2022-12-18T11:59:16.149Z,7.37
2022-12-18T12:01:53.489Z,7.33
2022-12-18T12:04:54.071Z,7.53
2022-12-18T12:07:38.366Z,6.97
2022-12-18T12:10:23.713Z,7.40
2022-12-18T12:13:12.334Z,7.17
2022-12-18T12:15:59.544Z,6.73
2022-12-18T12:18:44.457Z,7.13
2022-12-18T12:21:24.955Z,6.37
2022-12-18T12:24:02.232Z,6.57
2022-12-18T12:26:40.827Z,7.00
2022-12-18T12:29:30.012Z,7.37
2022-12-18T12:32:17.543Z,6.90
2022-12-18T12:35:09.239Z,7.50
2022-12-18T12:37:52.801Z,6.60
2022-12-18T12:40:51.367Z,6.77
2022-12-18T12:43:26.768Z,6.97
2022-12-18T12:46:00.922Z,6.90
2022-12-18T12:48:41.736Z,7.23
2022-12-18T12:51:17.394Z,7.63
2022-12-18T12:53:45.258Z,7.70
2022-12-18T12:56:16.823Z,7.17
2022-12-18T12:59:02.891Z,7.97
2022-12-18T13:01:42.032Z,7.97
2022-12-18T13:04:27.584Z,7.40
2022-12-18T13:07:06.243Z,8.23
2022-12-18T13:09:36.855Z,9.23
2022-12-18T13:12:33.420Z,8.20
2022-12-18T13:15:25.105Z,8.50
2022-12-18T13:18:12.517Z,9.33
2022-12-18T13:20:45.628Z,8.37
2022-12-18T13:23:37.164Z,8.70
2022-12-18T13:26:32.343Z,9.20
2022-12-18T13:29:02.872Z,8.47
2022-12-18T13:32:01.665Z,7.73
2022-12-18T13:34:32.710Z,8.83
2022-12-18T13:37:45.323Z,8.00
2022-12-18T13:40:56.167Z,8.23
2022-12-18T13:43:37.837Z,8.50
2022-12-18T13:46:23.681Z,9.03
2022-12-18T13:48:56.604Z,8.77
2022-12-18T13:51:25.434Z,7.77
2022-12-18T13:53:58.891Z,8.27
2022-12-18T13:56:28.555Z,8.87
2022-12-18T13:59:17.825Z,8.23
2022-12-18T14:01:54.817Z,8.23
2022-12-18T14:04:27.300Z,8.50
2022-12-18T14:06:59.879Z,8.13
2022-12-18T14:10:18.887Z,8.20
2022-12-18T14:13:00.355Z,7.57
2022-12-18T14:15:35.002Z,8.03
2022-12-18T14:18:20.383Z,7.27
2022-12-18T14:20:52.893Z,8.00
2022-12-18T14:23:30.699Z,7.67
2022-12-18T14:26:03.775Z,8.30
2022-12-18T14:28:32.865Z,7.83
2022-12-18T14:31:00.078Z,7.67
2022-12-18T14:33:28.707Z,8.30
2022-12-18T14:36:01.387Z,7.73
2022-12-18T14:38:31.560Z,7.93
2022-12-18T14:41:02.446Z,7.17
2022-12-18T14:43:33.901Z,8.97
2022-12-18T14:46:02.527Z,7.70
2022-12-18T14:48:39.861Z,8.07
2022-12-18T14:51:17.202Z,7.63
2022-12-18T14:53:54.148Z,8.60
2022-12-18T14:56:26.381Z,8.23
2022-12-18T14:58:57.478Z,8.10
2022-12-18T15:01:29.893Z,7.93
2022-12-18T15:03:59.662Z,8.00
2022-12-18T15:06:34.438Z,7.80
2022-12-18T15:09:04.788Z,8.00
2022-12-18T15:11:46.869Z,8.13
2022-12-18T15:14:35.794Z,8.67
2022-12-18T15:17:07.461Z,7.87
2022-12-18T15:19:41.385Z,9.17
2022-12-18T15:22:23.602Z,8.23
2022-12-18T15:24:51.710Z,8.03
2022-12-18T15:27:38.548Z,7.90
2022-12-18T15:30:22.952Z,7.83
2022-12-18T15:32:51.632Z,7.67
2022-12-18T15:35:23.100Z,8.10
2022-12-18T15:37:51.747Z,7.63
2022-12-18T15:40:22.275Z,7.40
2022-12-18T15:43:13.884Z,7.60
2022-12-18T15:45:41.160Z,8.67
2022-12-18T15:48:21.081Z,7.77
2022-12-18T15:50:51.689Z,7.43
2022-12-18T15:53:19.751Z,7.83
2022-12-18T15:56:05.603Z,8.30
2022-12-18T15:58:34.208Z,7.33
2022-12-18T16:01:02.208Z,8.23
2022-12-18T16:03:29.875Z,8.17
2022-12-18T16:05:59.047Z,9.27
2022-12-18T16:08:27.398Z,8.33
2022-12-18T16:10:56.805Z,7.90
2022-12-18T16:13:23.995Z,8.00
2022-12-18T16:16:10.752Z,7.53
2022-12-18T16:18:37.943Z,8.53
2022-12-18T16:21:05.488Z,8.23
2022-12-18T16:23:32.424Z,8.00
2022-12-18T16:25:59.414Z,8.33
2022-12-18T16:28:26.352Z,8.23
2022-12-18T16:30:53.350Z,8.37
2022-12-18T16:33:21.665Z,8.43
2022-12-18T16:35:53.313Z,7.60
2022-12-18T16:38:20.745Z,8.43
2022-12-18T16:41:11.502Z,8.03
2022-12-18T16:43:39.072Z,7.87
2022-12-18T16:46:06.328Z,7.33
2022-12-18T16:48:34.690Z,8.27
2022-12-18T16:51:05.236Z,8.03
2022-12-18T16:53:34.183Z,9.07
2022-12-18T16:56:02.325Z,8.63
2022-12-18T16:58:29.272Z,8.60
2022-12-18T17:00:56.197Z,9.50
2022-12-18T17:03:23.224Z,8.80
2022-12-18T17:05:53.282Z,8.80
2022-12-18T17:08:20.492Z,9.27
2022-12-18T17:10:47.449Z,10.10
2022-12-18T17:13:14.426Z,9.20
2022-12-18T17:15:41.441Z,8.87
2022-12-18T17:18:08.477Z,10.37
2022-12-18T17:20:35.430Z,10.33
2022-12-18T17:23:04.425Z,9.00
2022-12-18T17:25:31.350Z,9.87
2022-12-18T17:27:58.271Z,9.53
2022-12-18T17:30:25.221Z,9.30
2022-12-18T17:32:52.182Z,9.93
2022-12-18T17:35:19.751Z,10.33
2022-12-18T17:37:46.749Z,9.70
2022-12-18T17:40:15.111Z,10.67
2022-12-18T17:42:42.066Z,10.80
2022-12-18T17:45:10.164Z,10.97
2022-12-18T17:47:37.718Z,10.67
2022-12-18T17:50:05.366Z,10.77
2022-12-18T17:52:32.291Z,9.53
2022-12-18T17:54:59.241Z,9.93
2022-12-18T17:57:27.577Z,10.20
2022-12-18T17:59:54.534Z,9.83
2022-12-18T18:02:22.599Z,10.33
2022-12-18T18:04:50.154Z,10.50
2022-12-18T18:07:17.109Z,9.77
2022-12-18T18:09:44.197Z,10.27
2022-12-18T18:12:30.078Z,10.47
2022-12-18T18:14:58.727Z,10.67
2022-12-18T18:17:26.084Z,10.23
2022-12-18T18:19:53.213Z,11.40
2022-12-18T18:22:20.330Z,10.70
2022-12-18T18:24:47.400Z,10.27
2022-12-18T18:27:15.005Z,9.50
2022-12-18T18:29:42.088Z,9.87
2022-12-18T18:32:10.583Z,10.40
2022-12-18T18:34:37.562Z,10.20
2022-12-18T18:37:04.620Z,11.07
2022-12-18T18:39:31.734Z,10.40
2022-12-18T18:41:59.295Z,10.10
2022-12-18T18:44:26.662Z,9.77
2022-12-18T18:46:55.397Z,9.93
2022-12-18T18:49:27.238Z,10.10
2022-12-18T18:51:54.972Z,10.50
2022-12-18T18:54:22.134Z,10.77
2022-12-18T18:59:37.309Z,10.87
2022-12-18T19:02:05.152Z,10.03
2022-12-18T19:04:34.715Z,10.10
2022-12-18T19:07:02.043Z,10.50
2022-12-18T19:09:31.230Z,9.23
2022-12-18T19:12:16.958Z,10.17
2022-12-18T19:14:44.320Z,10.47
2022-12-18T19:17:11.517Z,9.70
2022-12-18T19:19:40.272Z,10.23
2022-12-18T19:22:07.484Z,9.13
2022-12-18T19:24:35.770Z,10.47
2022-12-18T19:27:02.873Z,10.30
2022-12-18T19:29:29.843Z,9.93
2022-12-18T19:31:56.909Z,9.87
2022-12-18T19:34:23.917Z,10.67
2022-12-18T19:36:57.962Z,10.50
2022-12-18T19:39:27.129Z,9.67
2022-12-18T19:41:54.492Z,10.23
2022-12-18T19:44:21.430Z,9.47
2022-12-18T19:46:51.518Z,10.27
2022-12-18T19:49:22.269Z,9.70
2022-12-18T19:51:50.415Z,10.13
2022-12-18T19:54:19.042Z,10.17
2022-12-18T19:56:46.514Z,10.30
2022-12-18T19:59:14.366Z,9.50
2022-12-18T20:01:41.672Z,9.93
2022-12-18T20:04:09.038Z,10.83
2022-12-18T20:06:46.943Z,9.70
2022-12-18T20:09:14.532Z,9.10
2022-12-18T20:11:43.183Z,9.87
2022-12-18T20:14:12.028Z,9.13
2022-12-18T20:16:40.016Z,8.87
2022-12-18T20:19:07.592Z,9.43
2022-12-18T20:21:35.398Z,9.40
2022-12-18T20:24:02.414Z,9.90
2022-12-18T20:26:30.096Z,9.47
2022-12-18T20:28:58.416Z,9.37
2022-12-18T20:31:25.556Z,8.53
2022-12-18T20:33:54.475Z,9.37
2022-12-18T20:36:25.873Z,10.30
2022-12-18T20:38:57.272Z,10.33
2022-12-18T20:41:31.036Z,9.27
2022-12-18T20:44:21.467Z,9.50
2022-12-18T20:46:53.260Z,9.30
2022-12-18T20:49:20.338Z,9.77
2022-12-18T20:51:51.259Z,9.50
2022-12-18T20:54:19.404Z,9.63
2022-12-18T20:56:46.379Z,9.83
2022-12-18T20:59:14.748Z,9.70
2022-12-18T21:01:48.032Z,9.67
2022-12-18T21:04:18.020Z,10.33
2022-12-18T21:06:51.385Z,9.23
2022-12-18T21:09:18.866Z,9.90
2022-12-18T21:12:04.638Z,9.97
2022-12-18T21:14:33.026Z,8.50
2022-12-18T21:17:02.900Z,9.13
2022-12-18T21:19:30.282Z,10.90
2022-12-18T21:21:58.325Z,9.70
2022-12-18T21:24:26.326Z,9.03
2022-12-18T21:26:55.332Z,9.20
2022-12-18T21:29:24.627Z,8.33
2022-12-18T21:31:54.636Z,10.00
2022-12-18T21:34:26.238Z,8.57
2022-12-18T21:36:54.363Z,8.60
2022-12-18T21:39:22.533Z,8.70
2022-12-18T21:42:08.737Z,8.40
2022-12-18T21:44:41.800Z,8.40
2022-12-18T21:47:21.350Z,8.13
2022-12-18T21:49:49.679Z,8.97
2022-12-18T21:52:17.108Z,8.83
2022-12-18T21:54:44.054Z,9.07
2022-12-18T21:57:13.248Z,8.37
2022-12-18T21:59:43.220Z,8.73
2022-12-18T22:02:14.860Z,8.80
2022-12-18T22:04:43.290Z,8.87
2022-12-18T22:07:11.886Z,7.70
2022-12-18T22:09:39.438Z,8.87
2022-12-18T22:12:08.878Z,8.87
2022-12-18T22:14:35.905Z,8.00
2022-12-18T22:17:02.900Z,7.00
2022-12-18T22:19:32.433Z,7.67
2022-12-18T22:22:00.356Z,7.70
2022-12-18T22:24:29.090Z,7.87
2022-12-18T22:27:01.721Z,8.43
2022-12-18T22:29:48.005Z,8.63
2022-12-18T22:32:16.939Z,9.50
2022-12-18T22:34:50.374Z,8.50
2022-12-18T22:37:17.298Z,8.20
2022-12-18T22:39:44.240Z,9.10
2022-12-18T22:42:11.474Z,7.37
2022-12-18T22:44:38.411Z,8.57
2022-12-18T22:47:07.215Z,9.07
2022-12-18T22:49:35.750Z,8.87
2022-12-18T22:52:06.805Z,8.80
2022-12-18T22:54:34.003Z,8.90
2022-12-18T22:57:00.925Z,8.30
2022-12-18T22:59:27.870Z,8.27
2022-12-18T23:01:58.442Z,8.77
2022-12-18T23:04:30.596Z,7.87
2022-12-18T23:07:05.869Z,7.60
2022-12-18T23:09:33.133Z,8.60
2022-12-18T23:12:00.438Z,7.63
2022-12-18T23:14:27.935Z,7.93
2022-12-18T23:16:54.990Z,8.60
2022-12-18T23:19:23.424Z,9.10
2022-12-18T23:21:51.132Z,9.53
2022-12-18T23:24:19.424Z,9.10
2022-12-18T23:26:46.358Z,8.33
2022-12-18T23:29:13.358Z,7.77
2022-12-18T23:31:40.445Z,8.23
2022-12-18T23:34:08.703Z,8.57
2022-12-18T23:36:45.284Z,9.00
2022-12-18T23:39:17.980Z,9.40
2022-12-18T23:41:58.798Z,9.00
2022-12-18T23:44:26.131Z,7.67
2022-12-18T23:46:53.199Z,9.47
2022-12-18T23:49:20.456Z,9.17
2022-12-18T23:51:47.394Z,8.00
2022-12-18T23:54:14.560Z,8.80
2022-12-18T23:56:41.575Z,8.73
2022-12-18T23:59:10.358Z,8.90
